sensor_id;sensor_type;location;lat;lon;timestamp;P1;durP1;ratioP1;P2;durP2;ratioP2
54191;SDS011;40101;53.002;6.488;2022-09-13T00:00:41;14.10;;;12.18;;
54191;SDS011;40101;53.002;6.488;2022-09-13T00:03:08;15.10;;;11.55;;
54191;SDS011;40101;53.002;6.488;2022-09-13T00:05:38;13.65;;;11.50;;
54191;SDS011;40101;53.002;6.488;2022-09-13T00:08:04;16.05;;;13.15;;
54191;SDS011;40101;53.002;6.488;2022-09-13T00:10:32;20.98;;;13.65;;
54191;SDS011;40101;53.002;6.488;2022-09-13T00:12:59;17.73;;;14.10;;
54191;SDS011;40101;53.002;6.488;2022-09-13T00:15:26;17.38;;;13.45;;
54191;SDS011;40101;53.002;6.488;2022-09-13T00:17:52;17.00;;;13.13;;
54191;SDS011;40101;53.002;6.488;2022-09-13T00:20:18;20.60;;;14.32;;
54191;SDS011;40101;53.002;6.488;2022-09-13T00:22:43;17.40;;;13.70;;
54191;SDS011;40101;53.002;6.488;2022-09-13T00:25:11;21.05;;;14.55;;
54191;SDS011;40101;53.002;6.488;2022-09-13T00:27:36;18.58;;;13.70;;
54191;SDS011;40101;53.002;6.488;2022-09-13T00:30:05;19.20;;;14.50;;
54191;SDS011;40101;53.002;6.488;2022-09-13T00:32:32;18.70;;;14.43;;
54191;SDS011;40101;53.002;6.488;2022-09-13T00:34:59;21.85;;;15.18;;
54191;SDS011;40101;53.002;6.488;2022-09-13T00:37:25;17.50;;;14.48;;
54191;SDS011;40101;53.002;6.488;2022-09-13T00:39:51;21.30;;;15.20;;
54191;SDS011;40101;53.002;6.488;2022-09-13T00:42:16;27.45;;;15.18;;
54191;SDS011;40101;53.002;6.488;2022-09-13T00:45:02;20.88;;;15.88;;
54191;SDS011;40101;53.002;6.488;2022-09-13T00:47:41;19.20;;;14.77;;
54191;SDS011;40101;53.002;6.488;2022-09-13T00:50:36;23.75;;;15.98;;
54191;SDS011;40101;53.002;6.488;2022-09-13T00:53:04;21.35;;;14.18;;
54191;SDS011;40101;53.002;6.488;2022-09-13T00:55:37;17.38;;;13.77;;
54191;SDS011;40101;53.002;6.488;2022-09-13T00:58:09;19.02;;;13.45;;
54191;SDS011;40101;53.002;6.488;2022-09-13T01:00:57;19.67;;;15.40;;
54191;SDS011;40101;53.002;6.488;2022-09-13T01:03:25;18.75;;;15.32;;
54191;SDS011;40101;53.002;6.488;2022-09-13T01:05:57;21.20;;;14.68;;
54191;SDS011;40101;53.002;6.488;2022-09-13T01:08:28;20.10;;;15.57;;
54191;SDS011;40101;53.002;6.488;2022-09-13T01:10:56;16.52;;;14.00;;
54191;SDS011;40101;53.002;6.488;2022-09-13T01:13:30;19.80;;;13.43;;
54191;SDS011;40101;53.002;6.488;2022-09-13T01:15:58;16.58;;;12.93;;
54191;SDS011;40101;53.002;6.488;2022-09-13T01:18:25;15.98;;;12.60;;
54191;SDS011;40101;53.002;6.488;2022-09-13T01:23:59;20.13;;;14.35;;
54191;SDS011;40101;53.002;6.488;2022-09-13T01:26:32;20.65;;;15.52;;
54191;SDS011;40101;53.002;6.488;2022-09-13T01:32:22;20.92;;;15.00;;
54191;SDS011;40101;53.002;6.488;2022-09-13T01:35:07;15.75;;;12.93;;
54191;SDS011;40101;53.002;6.488;2022-09-13T01:43:10;18.42;;;15.73;;
54191;SDS011;40101;53.002;6.488;2022-09-13T01:48:38;20.55;;;15.43;;
54191;SDS011;40101;53.002;6.488;2022-09-13T01:51:07;25.02;;;17.20;;
54191;SDS011;40101;53.002;6.488;2022-09-13T01:53:59;20.85;;;16.33;;
54191;SDS011;40101;53.002;6.488;2022-09-13T01:59:14;22.88;;;16.08;;
54191;SDS011;40101;53.002;6.488;2022-09-13T02:02:45;21.73;;;16.88;;
54191;SDS011;40101;53.002;6.488;2022-09-13T02:05:05;24.33;;;18.00;;
54191;SDS011;40101;53.002;6.488;2022-09-13T02:08:02;24.42;;;17.13;;
54191;SDS011;40101;53.002;6.488;2022-09-13T02:10:46;23.88;;;17.95;;
54191;SDS011;40101;53.002;6.488;2022-09-13T02:13:17;35.55;;;21.90;;
54191;SDS011;40101;53.002;6.488;2022-09-13T02:15:47;22.52;;;17.02;;
54191;SDS011;40101;53.002;6.488;2022-09-13T02:18:23;28.48;;;18.08;;
54191;SDS011;40101;53.002;6.488;2022-09-13T02:21:11;30.33;;;21.60;;
54191;SDS011;40101;53.002;6.488;2022-09-13T02:23:50;29.42;;;19.23;;
54191;SDS011;40101;53.002;6.488;2022-09-13T02:26:21;30.90;;;23.23;;
54191;SDS011;40101;53.002;6.488;2022-09-13T02:28:53;38.40;;;25.52;;
54191;SDS011;40101;53.002;6.488;2022-09-13T02:31:26;32.40;;;23.40;;
54191;SDS011;40101;53.002;6.488;2022-09-13T02:33:58;35.13;;;24.75;;
54191;SDS011;40101;53.002;6.488;2022-09-13T02:36:29;43.65;;;26.23;;
54191;SDS011;40101;53.002;6.488;2022-09-13T02:39:04;33.28;;;23.67;;
54191;SDS011;40101;53.002;6.488;2022-09-13T02:41:38;35.85;;;26.58;;
54191;SDS011;40101;53.002;6.488;2022-09-13T02:44:17;36.17;;;25.75;;
54191;SDS011;40101;53.002;6.488;2022-09-13T02:53:00;31.60;;;22.02;;
54191;SDS011;40101;53.002;6.488;2022-09-13T03:00:47;34.00;;;23.50;;
54191;SDS011;40101;53.002;6.488;2022-09-13T03:03:13;32.67;;;22.35;;
54191;SDS011;40101;53.002;6.488;2022-09-13T03:05:40;38.58;;;24.00;;
54191;SDS011;40101;53.002;6.488;2022-09-13T03:08:07;31.20;;;22.92;;
54191;SDS011;40101;53.002;6.488;2022-09-13T03:10:48;34.80;;;25.42;;
54191;SDS011;40101;53.002;6.488;2022-09-13T03:27:55;27.90;;;20.10;;
54191;SDS011;40101;53.002;6.488;2022-09-13T03:30:17;25.73;;;18.38;;
54191;SDS011;40101;53.002;6.488;2022-09-13T03:35:32;25.55;;;17.80;;
54191;SDS011;40101;53.002;6.488;2022-09-13T03:41:06;26.80;;;18.17;;
54191;SDS011;40101;53.002;6.488;2022-09-13T03:43:30;25.13;;;17.85;;
54191;SDS011;40101;53.002;6.488;2022-09-13T03:46:14;24.77;;;17.25;;
54191;SDS011;40101;53.002;6.488;2022-09-13T03:48:45;23.77;;;16.48;;
54191;SDS011;40101;53.002;6.488;2022-09-13T03:51:11;21.58;;;16.77;;
54191;SDS011;40101;53.002;6.488;2022-09-13T03:53:39;21.02;;;15.73;;
54191;SDS011;40101;53.002;6.488;2022-09-13T03:56:17;28.48;;;16.52;;
54191;SDS011;40101;53.002;6.488;2022-09-13T03:58:45;25.58;;;15.85;;
54191;SDS011;40101;53.002;6.488;2022-09-13T04:01:11;26.65;;;17.80;;
54191;SDS011;40101;53.002;6.488;2022-09-13T04:03:37;24.63;;;17.30;;
54191;SDS011;40101;53.002;6.488;2022-09-13T04:06:04;24.00;;;15.25;;
54191;SDS011;40101;53.002;6.488;2022-09-13T04:08:31;23.15;;;17.20;;
54191;SDS011;40101;53.002;6.488;2022-09-13T04:10:57;17.92;;;14.15;;
54191;SDS011;40101;53.002;6.488;2022-09-13T04:13:22;27.08;;;17.00;;
54191;SDS011;40101;53.002;6.488;2022-09-13T04:15:48;21.27;;;14.05;;
54191;SDS011;40101;53.002;6.488;2022-09-13T04:18:15;17.83;;;14.80;;
54191;SDS011;40101;53.002;6.488;2022-09-13T04:20:41;24.33;;;13.95;;
54191;SDS011;40101;53.002;6.488;2022-09-13T04:23:07;21.95;;;14.63;;
54191;SDS011;40101;53.002;6.488;2022-09-13T04:25:33;17.13;;;13.30;;
54191;SDS011;40101;53.002;6.488;2022-09-13T04:27:58;15.77;;;12.80;;
54191;SDS011;40101;53.002;6.488;2022-09-13T04:30:24;16.15;;;12.90;;
54191;SDS011;40101;53.002;6.488;2022-09-13T04:32:52;14.88;;;11.85;;
54191;SDS011;40101;53.002;6.488;2022-09-13T04:35:20;19.48;;;12.15;;
54191;SDS011;40101;53.002;6.488;2022-09-13T04:37:46;16.02;;;11.27;;
54191;SDS011;40101;53.002;6.488;2022-09-13T04:40:12;15.57;;;10.85;;
54191;SDS011;40101;53.002;6.488;2022-09-13T04:42:38;13.75;;;9.50;;
54191;SDS011;40101;53.002;6.488;2022-09-13T04:45:04;12.27;;;8.65;;
54191;SDS011;40101;53.002;6.488;2022-09-13T04:47:31;14.65;;;9.55;;
54191;SDS011;40101;53.002;6.488;2022-09-13T04:49:56;11.88;;;8.15;;
54191;SDS011;40101;53.002;6.488;2022-09-13T04:52:22;10.18;;;7.97;;
54191;SDS011;40101;53.002;6.488;2022-09-13T04:54:49;11.43;;;7.80;;
54191;SDS011;40101;53.002;6.488;2022-09-13T04:57:16;10.10;;;7.15;;
54191;SDS011;40101;53.002;6.488;2022-09-13T04:59:47;7.82;;;6.10;;
54191;SDS011;40101;53.002;6.488;2022-09-13T05:02:12;9.68;;;5.35;;
54191;SDS011;40101;53.002;6.488;2022-09-13T05:04:38;7.70;;;5.05;;
54191;SDS011;40101;53.002;6.488;2022-09-13T05:07:03;13.10;;;5.53;;
54191;SDS011;40101;53.002;6.488;2022-09-13T05:09:29;10.82;;;5.20;;
54191;SDS011;40101;53.002;6.488;2022-09-13T05:11:56;8.10;;;4.78;;
54191;SDS011;40101;53.002;6.488;2022-09-13T05:14:22;7.18;;;4.97;;
54191;SDS011;40101;53.002;6.488;2022-09-13T05:16:47;6.63;;;3.95;;
54191;SDS011;40101;53.002;6.488;2022-09-13T05:19:13;5.22;;;4.03;;
54191;SDS011;40101;53.002;6.488;2022-09-13T05:21:39;5.68;;;3.92;;
54191;SDS011;40101;53.002;6.488;2022-09-13T05:24:04;5.90;;;3.55;;
54191;SDS011;40101;53.002;6.488;2022-09-13T05:26:30;11.55;;;4.22;;
54191;SDS011;40101;53.002;6.488;2022-09-13T05:28:59;8.35;;;3.35;;
54191;SDS011;40101;53.002;6.488;2022-09-13T05:31:28;5.78;;;2.45;;
54191;SDS011;40101;53.002;6.488;2022-09-13T05:33:59;5.97;;;3.00;;
54191;SDS011;40101;53.002;6.488;2022-09-13T05:36:26;6.78;;;2.53;;
54191;SDS011;40101;53.002;6.488;2022-09-13T05:38:53;9.10;;;2.65;;
54191;SDS011;40101;53.002;6.488;2022-09-13T05:41:19;8.18;;;2.58;;
54191;SDS011;40101;53.002;6.488;2022-09-13T05:43:45;4.68;;;2.03;;
54191;SDS011;40101;53.002;6.488;2022-09-13T05:46:14;4.28;;;2.30;;
54191;SDS011;40101;53.002;6.488;2022-09-13T05:48:42;6.70;;;2.30;;
54191;SDS011;40101;53.002;6.488;2022-09-13T05:53:36;8.05;;;3.05;;
54191;SDS011;40101;53.002;6.488;2022-09-13T05:56:04;9.57;;;3.05;;
54191;SDS011;40101;53.002;6.488;2022-09-13T05:58:31;4.22;;;2.65;;
54191;SDS011;40101;53.002;6.488;2022-09-13T06:00:59;5.25;;;3.55;;
54191;SDS011;40101;53.002;6.488;2022-09-13T06:03:25;4.28;;;2.90;;
54191;SDS011;40101;53.002;6.488;2022-09-13T06:05:57;4.93;;;3.05;;
54191;SDS011;40101;53.002;6.488;2022-09-13T06:08:26;4.05;;;3.13;;
54191;SDS011;40101;53.002;6.488;2022-09-13T06:10:57;4.15;;;3.10;;
54191;SDS011;40101;53.002;6.488;2022-09-13T06:13:25;4.90;;;2.85;;
54191;SDS011;40101;53.002;6.488;2022-09-13T06:15:51;5.53;;;2.88;;
54191;SDS011;40101;53.002;6.488;2022-09-13T06:18:19;5.22;;;2.70;;
54191;SDS011;40101;53.002;6.488;2022-09-13T06:20:56;7.32;;;3.10;;
54191;SDS011;40101;53.002;6.488;2022-09-13T06:23:23;9.13;;;3.13;;
54191;SDS011;40101;53.002;6.488;2022-09-13T06:25:49;7.90;;;2.70;;
54191;SDS011;40101;53.002;6.488;2022-09-13T06:28:14;4.10;;;2.75;;
54191;SDS011;40101;53.002;6.488;2022-09-13T06:30:40;5.68;;;2.17;;
54191;SDS011;40101;53.002;6.488;2022-09-13T06:33:06;9.55;;;3.22;;
54191;SDS011;40101;53.002;6.488;2022-09-13T06:35:31;6.20;;;2.95;;
54191;SDS011;40101;53.002;6.488;2022-09-13T06:37:57;3.80;;;1.88;;
54191;SDS011;40101;53.002;6.488;2022-09-13T06:40:26;6.93;;;2.72;;
54191;SDS011;40101;53.002;6.488;2022-09-13T06:42:52;5.05;;;2.25;;
54191;SDS011;40101;53.002;6.488;2022-09-13T06:45:18;9.43;;;3.03;;
54191;SDS011;40101;53.002;6.488;2022-09-13T06:47:44;6.70;;;2.13;;
54191;SDS011;40101;53.002;6.488;2022-09-13T06:50:10;5.03;;;1.90;;
54191;SDS011;40101;53.002;6.488;2022-09-13T06:52:36;5.13;;;2.08;;
54191;SDS011;40101;53.002;6.488;2022-09-13T06:55:02;8.23;;;2.78;;
54191;SDS011;40101;53.002;6.488;2022-09-13T06:57:31;3.00;;;1.60;;
54191;SDS011;40101;53.002;6.488;2022-09-13T06:59:57;5.88;;;2.10;;
54191;SDS011;40101;53.002;6.488;2022-09-13T07:02:22;6.05;;;1.75;;
54191;SDS011;40101;53.002;6.488;2022-09-13T07:04:49;5.13;;;2.35;;
54191;SDS011;40101;53.002;6.488;2022-09-13T07:07:14;2.78;;;1.85;;
54191;SDS011;40101;53.002;6.488;2022-09-13T07:09:40;6.40;;;2.03;;
54191;SDS011;40101;53.002;6.488;2022-09-13T07:12:13;3.88;;;2.17;;
54191;SDS011;40101;53.002;6.488;2022-09-13T07:14:38;6.95;;;1.95;;
54191;SDS011;40101;53.002;6.488;2022-09-13T07:17:05;3.28;;;1.58;;
54191;SDS011;40101;53.002;6.488;2022-09-13T07:19:31;5.15;;;1.85;;
54191;SDS011;40101;53.002;6.488;2022-09-13T07:21:57;4.40;;;1.48;;
54191;SDS011;40101;53.002;6.488;2022-09-13T07:24:26;5.75;;;1.52;;
54191;SDS011;40101;53.002;6.488;2022-09-13T07:27:00;4.10;;;1.08;;
54191;SDS011;40101;53.002;6.488;2022-09-13T07:29:26;6.40;;;1.40;;
54191;SDS011;40101;53.002;6.488;2022-09-13T07:31:53;3.50;;;1.00;;
54191;SDS011;40101;53.002;6.488;2022-09-13T07:34:20;7.72;;;1.08;;
54191;SDS011;40101;53.002;6.488;2022-09-13T07:36:47;5.20;;;0.60;;
54191;SDS011;40101;53.002;6.488;2022-09-13T07:39:13;5.15;;;0.73;;
54191;SDS011;40101;53.002;6.488;2022-09-13T07:41:40;5.80;;;0.60;;
54191;SDS011;40101;53.002;6.488;2022-09-13T07:44:06;2.72;;;0.80;;
54191;SDS011;40101;53.002;6.488;2022-09-13T07:46:34;5.18;;;0.60;;
54191;SDS011;40101;53.002;6.488;2022-09-13T07:49:04;2.80;;;1.52;;
54191;SDS011;40101;53.002;6.488;2022-09-13T07:51:32;2.90;;;0.88;;
54191;SDS011;40101;53.002;6.488;2022-09-13T07:54:00;5.15;;;0.73;;
54191;SDS011;40101;53.002;6.488;2022-09-13T07:56:35;5.55;;;0.90;;
54191;SDS011;40101;53.002;6.488;2022-09-13T07:59:02;3.70;;;0.90;;
54191;SDS011;40101;53.002;6.488;2022-09-13T08:03:59;7.63;;;0.73;;
54191;SDS011;40101;53.002;6.488;2022-09-13T08:06:30;1.65;;;0.40;;
54191;SDS011;40101;53.002;6.488;2022-09-13T08:08:57;3.42;;;0.70;;
54191;SDS011;40101;53.002;6.488;2022-09-13T08:11:27;5.28;;;0.90;;
54191;SDS011;40101;53.002;6.488;2022-09-13T08:13:55;2.08;;;0.55;;
54191;SDS011;40101;53.002;6.488;2022-09-13T08:16:22;2.10;;;0.73;;
54191;SDS011;40101;53.002;6.488;2022-09-13T08:18:50;5.18;;;1.08;;
54191;SDS011;40101;53.002;6.488;2022-09-13T08:21:17;2.25;;;0.57;;
54191;SDS011;40101;53.002;6.488;2022-09-13T08:23:44;1.65;;;0.57;;
54191;SDS011;40101;53.002;6.488;2022-09-13T08:26:11;3.92;;;0.63;;
54191;SDS011;40101;53.002;6.488;2022-09-13T08:28:37;4.78;;;1.13;;
54191;SDS011;40101;53.002;6.488;2022-09-13T08:33:34;3.42;;;0.73;;
54191;SDS011;40101;53.002;6.488;2022-09-13T08:36:00;2.65;;;0.50;;
54191;SDS011;40101;53.002;6.488;2022-09-13T08:38:27;2.40;;;0.40;;
54191;SDS011;40101;53.002;6.488;2022-09-13T08:40:54;4.85;;;0.50;;
54191;SDS011;40101;53.002;6.488;2022-09-13T08:46:02;3.53;;;0.70;;
54191;SDS011;40101;53.002;6.488;2022-09-13T08:48:38;2.50;;;0.70;;
54191;SDS011;40101;53.002;6.488;2022-09-13T08:51:10;4.53;;;0.70;;
54191;SDS011;40101;53.002;6.488;2022-09-13T08:54:02;3.53;;;0.47;;
54191;SDS011;40101;53.002;6.488;2022-09-13T08:56:31;3.95;;;0.98;;
54191;SDS011;40101;53.002;6.488;2022-09-13T09:09:51;2.55;;;0.40;;
54191;SDS011;40101;53.002;6.488;2022-09-13T09:12:26;4.63;;;0.70;;
54191;SDS011;40101;53.002;6.488;2022-09-13T09:15:13;2.03;;;0.70;;
54191;SDS011;40101;53.002;6.488;2022-09-13T09:17:54;3.45;;;0.73;;
54191;SDS011;40101;53.002;6.488;2022-09-13T09:20:39;4.32;;;0.60;;
54191;SDS011;40101;53.002;6.488;2022-09-13T09:23:12;5.43;;;0.88;;
54191;SDS011;40101;53.002;6.488;2022-09-13T09:25:43;3.25;;;1.00;;
54191;SDS011;40101;53.002;6.488;2022-09-13T09:28:10;3.70;;;1.35;;
54191;SDS011;40101;53.002;6.488;2022-09-13T09:36:27;2.88;;;0.70;;
54191;SDS011;40101;53.002;6.488;2022-09-13T09:39:16;4.05;;;0.50;;
54191;SDS011;40101;53.002;6.488;2022-09-13T09:41:43;3.22;;;0.73;;
54191;SDS011;40101;53.002;6.488;2022-09-13T09:44:13;4.82;;;0.77;;
54191;SDS011;40101;53.002;6.488;2022-09-13T09:46:46;1.95;;;0.47;;
54191;SDS011;40101;53.002;6.488;2022-09-13T09:58:56;5.05;;;0.60;;
54191;SDS011;40101;53.002;6.488;2022-09-13T10:01:22;5.10;;;0.30;;
54191;SDS011;40101;53.002;6.488;2022-09-13T10:03:51;1.67;;;0.40;;
54191;SDS011;40101;53.002;6.488;2022-09-13T10:06:39;4.40;;;0.63;;
54191;SDS011;40101;53.002;6.488;2022-09-13T10:09:14;3.85;;;0.65;;
54191;SDS011;40101;53.002;6.488;2022-09-13T10:11:56;2.60;;;0.60;;
54191;SDS011;40101;53.002;6.488;2022-09-13T10:17:02;1.40;;;0.55;;
54191;SDS011;40101;53.002;6.488;2022-09-13T10:19:29;3.55;;;0.98;;
54191;SDS011;40101;53.002;6.488;2022-09-13T10:22:00;2.72;;;0.68;;
54191;SDS011;40101;53.002;6.488;2022-09-13T10:24:27;2.97;;;0.70;;
54191;SDS011;40101;53.002;6.488;2022-09-13T10:26:55;3.00;;;0.90;;
54191;SDS011;40101;53.002;6.488;2022-09-13T10:29:21;3.75;;;0.63;;
54191;SDS011;40101;53.002;6.488;2022-09-13T10:31:49;3.65;;;0.65;;
54191;SDS011;40101;53.002;6.488;2022-09-13T10:34:21;2.92;;;0.68;;
54191;SDS011;40101;53.002;6.488;2022-09-13T10:36:52;3.90;;;0.70;;
54191;SDS011;40101;53.002;6.488;2022-09-13T10:39:56;4.25;;;0.77;;
54191;SDS011;40101;53.002;6.488;2022-09-13T10:42:30;2.28;;;0.65;;
54191;SDS011;40101;53.002;6.488;2022-09-13T10:44:57;4.75;;;0.65;;
54191;SDS011;40101;53.002;6.488;2022-09-13T10:47:30;2.53;;;0.68;;
54191;SDS011;40101;53.002;6.488;2022-09-13T10:52:55;2.88;;;0.63;;
54191;SDS011;40101;53.002;6.488;2022-09-13T11:00:34;5.05;;;0.75;;
54191;SDS011;40101;53.002;6.488;2022-09-13T11:03:10;4.93;;;0.57;;
54191;SDS011;40101;53.002;6.488;2022-09-13T11:06:01;3.13;;;0.77;;
54191;SDS011;40101;53.002;6.488;2022-09-13T11:13:57;4.63;;;1.80;;
54191;SDS011;40101;53.002;6.488;2022-09-13T11:25:11;7.07;;;0.95;;
54191;SDS011;40101;53.002;6.488;2022-09-13T11:30:57;6.00;;;0.93;;
54191;SDS011;40101;53.002;6.488;2022-09-13T11:33:32;3.60;;;0.50;;
54191;SDS011;40101;53.002;6.488;2022-09-13T11:46:44;3.50;;;0.70;;
54191;SDS011;40101;53.002;6.488;2022-09-13T11:57:51;6.43;;;0.70;;
54191;SDS011;40101;53.002;6.488;2022-09-13T12:00:23;6.35;;;1.08;;
54191;SDS011;40101;53.002;6.488;2022-09-13T12:03:14;3.92;;;0.70;;
54191;SDS011;40101;53.002;6.488;2022-09-13T12:05:51;3.60;;;0.80;;
54191;SDS011;40101;53.002;6.488;2022-09-13T12:08:22;3.80;;;0.60;;
54191;SDS011;40101;53.002;6.488;2022-09-13T12:10:56;2.80;;;0.65;;
54191;SDS011;40101;53.002;6.488;2022-09-13T12:13:28;2.47;;;1.05;;
54191;SDS011;40101;53.002;6.488;2022-09-13T12:16:00;2.47;;;0.60;;
54191;SDS011;40101;53.002;6.488;2022-09-13T12:18:41;2.63;;;0.45;;
54191;SDS011;40101;53.002;6.488;2022-09-13T12:21:11;6.05;;;0.80;;
54191;SDS011;40101;53.002;6.488;2022-09-13T12:26:25;3.63;;;0.70;;
54191;SDS011;40101;53.002;6.488;2022-09-13T12:29:23;4.57;;;0.73;;
54191;SDS011;40101;53.002;6.488;2022-09-13T12:31:55;1.98;;;0.47;;
54191;SDS011;40101;53.002;6.488;2022-09-13T12:50:41;5.30;;;0.68;;
54191;SDS011;40101;53.002;6.488;2022-09-13T13:01:48;2.70;;;0.63;;
54191;SDS011;40101;53.002;6.488;2022-09-13T13:07:15;2.92;;;0.60;;
54191;SDS011;40101;53.002;6.488;2022-09-13T13:09:53;2.25;;;0.60;;
54191;SDS011;40101;53.002;6.488;2022-09-13T13:12:28;7.22;;;1.75;;
54191;SDS011;40101;53.002;6.488;2022-09-13T13:14:58;3.47;;;0.63;;
54191;SDS011;40101;53.002;6.488;2022-09-13T13:17:47;3.15;;;0.50;;
54191;SDS011;40101;53.002;6.488;2022-09-13T13:23:24;3.25;;;1.33;;
54191;SDS011;40101;53.002;6.488;2022-09-13T13:25:55;7.43;;;0.93;;
54191;SDS011;40101;53.002;6.488;2022-09-13T13:31:08;9.00;;;1.25;;
54191;SDS011;40101;53.002;6.488;2022-09-13T13:33:45;3.60;;;1.00;;
54191;SDS011;40101;53.002;6.488;2022-09-13T13:36:21;4.35;;;0.77;;
54191;SDS011;40101;53.002;6.488;2022-09-13T13:47:21;8.90;;;1.80;;
54191;SDS011;40101;53.002;6.488;2022-09-13T13:57:20;5.25;;;1.00;;
54191;SDS011;40101;53.002;6.488;2022-09-13T13:59:49;8.07;;;1.15;;
54191;SDS011;40101;53.002;6.488;2022-09-13T14:02:18;5.95;;;1.33;;
54191;SDS011;40101;53.002;6.488;2022-09-13T14:10:49;6.15;;;1.13;;
54191;SDS011;40101;53.002;6.488;2022-09-13T14:14:24;5.05;;;1.27;;
54191;SDS011;40101;53.002;6.488;2022-09-13T14:24:44;4.00;;;1.02;;
54191;SDS011;40101;53.002;6.488;2022-09-13T14:29:49;3.92;;;0.65;;
54191;SDS011;40101;53.002;6.488;2022-09-13T14:32:19;5.40;;;1.00;;
54191;SDS011;40101;53.002;6.488;2022-09-13T14:34:51;4.00;;;0.90;;
54191;SDS011;40101;53.002;6.488;2022-09-13T14:37:31;5.10;;;0.93;;
54191;SDS011;40101;53.002;6.488;2022-09-13T14:40:00;6.05;;;1.73;;
54191;SDS011;40101;53.002;6.488;2022-09-13T14:42:39;6.55;;;1.00;;
54191;SDS011;40101;53.002;6.488;2022-09-13T14:45:20;8.15;;;1.13;;
54191;SDS011;40101;53.002;6.488;2022-09-13T14:48:02;4.30;;;0.90;;
54191;SDS011;40101;53.002;6.488;2022-09-13T14:50:31;4.95;;;0.90;;
54191;SDS011;40101;53.002;6.488;2022-09-13T14:53:12;4.55;;;0.90;;
54191;SDS011;40101;53.002;6.488;2022-09-13T14:55:41;8.50;;;1.58;;
54191;SDS011;40101;53.002;6.488;2022-09-13T14:58:16;6.15;;;1.15;;
54191;SDS011;40101;53.002;6.488;2022-09-13T15:00:57;4.03;;;1.17;;
54191;SDS011;40101;53.002;6.488;2022-09-13T15:03:24;2.72;;;0.60;;
54191;SDS011;40101;53.002;6.488;2022-09-13T15:11:02;5.07;;;0.98;;
54191;SDS011;40101;53.002;6.488;2022-09-13T15:13:30;5.38;;;1.27;;
54191;SDS011;40101;53.002;6.488;2022-09-13T15:15:57;4.53;;;1.13;;
54191;SDS011;40101;53.002;6.488;2022-09-13T15:18:28;6.72;;;0.98;;
54191;SDS011;40101;53.002;6.488;2022-09-13T15:23:39;4.47;;;0.80;;
54191;SDS011;40101;53.002;6.488;2022-09-13T15:26:07;6.03;;;0.82;;
54191;SDS011;40101;53.002;6.488;2022-09-13T15:31:05;3.70;;;0.93;;
54191;SDS011;40101;53.002;6.488;2022-09-13T15:33:32;4.82;;;1.52;;
54191;SDS011;40101;53.002;6.488;2022-09-13T15:36:12;1.88;;;0.50;;
54191;SDS011;40101;53.002;6.488;2022-09-13T15:39:09;2.78;;;0.80;;
54191;SDS011;40101;53.002;6.488;2022-09-13T15:41:52;3.95;;;1.20;;
54191;SDS011;40101;53.002;6.488;2022-09-13T15:44:19;5.80;;;1.05;;
54191;SDS011;40101;53.002;6.488;2022-09-13T15:46:49;4.55;;;0.98;;
54191;SDS011;40101;53.002;6.488;2022-09-13T15:49:21;5.93;;;0.88;;
54191;SDS011;40101;53.002;6.488;2022-09-13T15:51:57;7.80;;;1.20;;
54191;SDS011;40101;53.002;6.488;2022-09-13T15:54:33;8.13;;;1.13;;
54191;SDS011;40101;53.002;6.488;2022-09-13T15:57:00;6.50;;;2.05;;
54191;SDS011;40101;53.002;6.488;2022-09-13T15:59:30;4.00;;;0.73;;
54191;SDS011;40101;53.002;6.488;2022-09-13T16:01:55;6.20;;;0.77;;
54191;SDS011;40101;53.002;6.488;2022-09-13T16:04:21;5.00;;;0.75;;
54191;SDS011;40101;53.002;6.488;2022-09-13T16:06:48;4.00;;;0.95;;
54191;SDS011;40101;53.002;6.488;2022-09-13T16:09:17;3.13;;;0.90;;
54191;SDS011;40101;53.002;6.488;2022-09-13T16:11:48;7.05;;;1.45;;
54191;SDS011;40101;53.002;6.488;2022-09-13T16:14:15;5.30;;;0.93;;
54191;SDS011;40101;53.002;6.488;2022-09-13T16:16:42;3.03;;;1.02;;
54191;SDS011;40101;53.002;6.488;2022-09-13T16:19:13;11.85;;;2.53;;
54191;SDS011;40101;53.002;6.488;2022-09-13T16:21:43;5.93;;;0.80;;
54191;SDS011;40101;53.002;6.488;2022-09-13T16:24:09;8.30;;;1.08;;
54191;SDS011;40101;53.002;6.488;2022-09-13T16:26:34;5.25;;;1.35;;
54191;SDS011;40101;53.002;6.488;2022-09-13T16:29:01;5.68;;;0.95;;
54191;SDS011;40101;53.002;6.488;2022-09-13T16:31:26;5.07;;;1.10;;
54191;SDS011;40101;53.002;6.488;2022-09-13T16:33:52;4.78;;;1.13;;
54191;SDS011;40101;53.002;6.488;2022-09-13T16:36:18;12.90;;;1.23;;
54191;SDS011;40101;53.002;6.488;2022-09-13T16:38:44;2.22;;;0.57;;
54191;SDS011;40101;53.002;6.488;2022-09-13T16:41:09;3.10;;;0.85;;
54191;SDS011;40101;53.002;6.488;2022-09-13T16:43:35;6.07;;;0.95;;
54191;SDS011;40101;53.002;6.488;2022-09-13T16:46:05;3.83;;;0.75;;
54191;SDS011;40101;53.002;6.488;2022-09-13T16:48:32;5.30;;;1.05;;
54191;SDS011;40101;53.002;6.488;2022-09-13T16:51:15;4.15;;;0.80;;
54191;SDS011;40101;53.002;6.488;2022-09-13T16:53:41;4.93;;;1.25;;
54191;SDS011;40101;53.002;6.488;2022-09-13T16:56:08;4.97;;;1.08;;
54191;SDS011;40101;53.002;6.488;2022-09-13T16:58:40;6.32;;;1.33;;
54191;SDS011;40101;53.002;6.488;2022-09-13T17:01:11;3.70;;;0.88;;
54191;SDS011;40101;53.002;6.488;2022-09-13T17:03:38;7.53;;;2.22;;
54191;SDS011;40101;53.002;6.488;2022-09-13T17:06:06;6.82;;;1.38;;
54191;SDS011;40101;53.002;6.488;2022-09-13T17:08:34;7.13;;;0.95;;
54191;SDS011;40101;53.002;6.488;2022-09-13T17:11:11;3.25;;;0.95;;
54191;SDS011;40101;53.002;6.488;2022-09-13T17:13:39;6.85;;;1.58;;
54191;SDS011;40101;53.002;6.488;2022-09-13T17:16:06;7.20;;;0.75;;
54191;SDS011;40101;53.002;6.488;2022-09-13T17:18:43;4.18;;;1.00;;
54191;SDS011;40101;53.002;6.488;2022-09-13T17:21:09;3.95;;;0.90;;
54191;SDS011;40101;53.002;6.488;2022-09-13T17:23:35;9.38;;;0.80;;
54191;SDS011;40101;53.002;6.488;2022-09-13T17:26:01;6.03;;;1.30;;
54191;SDS011;40101;53.002;6.488;2022-09-13T17:28:26;6.43;;;1.13;;
54191;SDS011;40101;53.002;6.488;2022-09-13T17:30:52;3.35;;;0.93;;
54191;SDS011;40101;53.002;6.488;2022-09-13T17:33:18;5.88;;;2.00;;
54191;SDS011;40101;53.002;6.488;2022-09-13T17:35:43;7.20;;;1.63;;
54191;SDS011;40101;53.002;6.488;2022-09-13T17:38:09;2.40;;;0.60;;
54191;SDS011;40101;53.002;6.488;2022-09-13T17:40:35;6.88;;;0.77;;
54191;SDS011;40101;53.002;6.488;2022-09-13T17:43:01;4.43;;;1.00;;
54191;SDS011;40101;53.002;6.488;2022-09-13T17:45:28;3.47;;;0.73;;
54191;SDS011;40101;53.002;6.488;2022-09-13T17:47:54;3.20;;;1.27;;
54191;SDS011;40101;53.002;6.488;2022-09-13T17:50:21;3.08;;;1.45;;
54191;SDS011;40101;53.002;6.488;2022-09-13T17:52:47;5.80;;;1.00;;
54191;SDS011;40101;53.002;6.488;2022-09-13T17:55:13;4.15;;;1.17;;
54191;SDS011;40101;53.002;6.488;2022-09-13T17:57:39;4.93;;;0.82;;
54191;SDS011;40101;53.002;6.488;2022-09-13T18:00:05;6.03;;;1.15;;
54191;SDS011;40101;53.002;6.488;2022-09-13T18:02:36;9.48;;;0.88;;
54191;SDS011;40101;53.002;6.488;2022-09-13T18:05:02;7.70;;;1.48;;
54191;SDS011;40101;53.002;6.488;2022-09-13T18:07:29;4.80;;;1.35;;
54191;SDS011;40101;53.002;6.488;2022-09-13T18:09:55;4.80;;;0.63;;
54191;SDS011;40101;53.002;6.488;2022-09-13T18:12:20;2.55;;;0.65;;
54191;SDS011;40101;53.002;6.488;2022-09-13T18:14:46;9.15;;;1.25;;
54191;SDS011;40101;53.002;6.488;2022-09-13T18:17:12;5.80;;;1.25;;
54191;SDS011;40101;53.002;6.488;2022-09-13T18:19:38;7.40;;;1.20;;
54191;SDS011;40101;53.002;6.488;2022-09-13T18:22:04;3.88;;;1.00;;
54191;SDS011;40101;53.002;6.488;2022-09-13T18:24:33;8.27;;;1.15;;
54191;SDS011;40101;53.002;6.488;2022-09-13T18:26:59;3.17;;;0.60;;
54191;SDS011;40101;53.002;6.488;2022-09-13T18:29:26;7.32;;;1.20;;
54191;SDS011;40101;53.002;6.488;2022-09-13T18:31:53;9.40;;;1.08;;